This is the latest recevied weather packets stored in our database for station/object DD8XX-10. If no packets are shown the sender has not sent any weather packets the latest 1 day(s).
| Time | Temp. | Humidity | Pressure | Rain* | Wind** | Luminosity | Snow |
|---|---|---|---|---|---|---|---|
| 1778058786 | 15.56° C | 58% | 1012.7 hPa | - | - | - | - |
| 1778057886 | 15.56° C | 58% | 1012.9 hPa | - | - | - | - |
| 1778056986 | 15.56° C | 61% | 1012.8 hPa | - | - | - | - |
| 1778054285 | 14.44° C | 64% | 1013 hPa | - | - | - | - |
| 1778053385 | 14.44° C | 62% | 1013 hPa | - | - | - | - |
| 1778052485 | 14.44° C | 64% | 1013.1 hPa | - | - | - | - |
| 1778051585 | 13.33° C | 66% | 1013.3 hPa | - | - | - | - |
| 1778050685 | 13.89° C | 65% | 1013.6 hPa | - | - | - | - |
| 1778049785 | 13.89° C | 67% | 1013.8 hPa | - | - | - | - |
| 1778046184 | 10.56° C | 77% | 1014 hPa | - | - | - | - |
| 1778044384 | 10° C | 81% | 1014.2 hPa | - | - | - | - |
| 1778043484 | 10° C | 81% | 1014.4 hPa | - | - | - | - |
| 1778042584 | 9.44° C | 81% | 1014.6 hPa | - | - | - | - |
| 1778038083 | 8.89° C | 84% | 1015 hPa | - | - | - | - |
| 1778037183 | 8.89° C | 84% | 1015 hPa | - | - | - | - |
| 1778036283 | 8.89° C | 84% | 1015.2 hPa | - | - | - | - |
| 1778035383 | 8.89° C | 85% | 1015.4 hPa | - | - | - | - |
| 1778034483 | 8.89° C | 85% | 1015.6 hPa | - | - | - | - |
| 1778032684 | 8.89° C | 85% | 1015.8 hPa | - | - | - | - |
| 1778030882 | 9.44° C | 83% | 1015.6 hPa | - | - | - | - |
| 1778029982 | 8.89° C | 84% | 1015.8 hPa | - | - | - | - |
| 1778029082 | 9.44° C | 82% | 1015.9 hPa | - | - | - | - |
| 1778028182 | 9.44° C | 82% | 1016 hPa | - | - | - | - |
* Rain since midnight (hover to see other rain measurements)
** Current wind speed in m/s (hover to see current wind gust speed)